HAZ2910 ZYTL-ZSHC
Flight info
| Callsign | HAZ2910 |
|---|---|
| Flight time | N/A |
| Altitude | 34100 |
| Route | KARPI W5 TAO DCT URBAD W172 LATUX W108 MATNU W115 PINOT B221 SUPAR W505 DSH |
| Aircraft | A346/H-SDE2E3FGHIJ3J4J5M1RWXY/LB1D1 |
Departure
| Time | N/A |
|---|---|
| Airport | Dalian Zhoushuizi International Airport (ZYTL) |
Arrival
| Time | 2026-05-05 08:23 |
|---|---|
| Airport | Hangzhou Xiaoshan International Airport (ZSHC) |
| Time | Latitude | Longitude | Altitude | Speed | Heading |
|---|---|---|---|---|---|
| 2026-05-05 07:53 | 31.21737 | 122.34623 | 26107 ft | 453 kts | 201° |
| 2026-05-05 07:54 | 31.18738 | 122.33292 | 25856 ft | 462 kts | 201° |
| 2026-05-05 07:54 | 31.15704 | 122.31946 | 25607 ft | 469 kts | 201° |
| 2026-05-05 07:54 | 31.12632 | 122.30584 | 25358 ft | 476 kts | 201° |
| 2026-05-05 07:54 | 31.09513 | 122.29202 | 25109 ft | 483 kts | 201° |
| 2026-05-05 07:55 | 31.06352 | 122.27803 | 24859 ft | 489 kts | 201° |
| 2026-05-05 07:55 | 31.03159 | 122.26390 | 24609 ft | 494 kts | 201° |
| 2026-05-05 07:55 | 30.99905 | 122.25024 | 24359 ft | 499 kts | 198° |
| 2026-05-05 07:55 | 30.96572 | 122.23836 | 24137 ft | 495 kts | 196° |
| 2026-05-05 07:56 | 30.93304 | 122.22745 | 23867 ft | 484 kts | 196° |
| 2026-05-05 07:56 | 30.90085 | 122.21677 | 23617 ft | 480 kts | 196° |
| 2026-05-05 07:56 | 30.86915 | 122.20492 | 23357 ft | 477 kts | 201° |
| 2026-05-05 07:56 | 30.83906 | 122.18864 | 23107 ft | 475 kts | 208° |
| 2026-05-05 07:57 | 30.81120 | 122.16807 | 22871 ft | 473 kts | 216° |
| 2026-05-05 07:57 | 30.78603 | 122.14367 | 22882 ft | 471 kts | 223° |
| 2026-05-05 07:57 | 30.76367 | 122.11584 | 22891 ft | 470 kts | 230° |
| 2026-05-05 07:57 | 30.74438 | 122.08508 | 22897 ft | 469 kts | 236° |
| 2026-05-05 07:58 | 30.72648 | 122.05333 | 22898 ft | 469 kts | 237° |
| 2026-05-05 07:58 | 30.70887 | 122.02147 | 22761 ft | 470 kts | 237° |
| 2026-05-05 07:58 | 30.69113 | 121.98940 | 22367 ft | 469 kts | 237° |
| 2026-05-05 07:58 | 30.67331 | 121.95734 | 21909 ft | 465 kts | 237° |
| 2026-05-05 07:59 | 30.65551 | 121.92549 | 21452 ft | 461 kts | 237° |
| 2026-05-05 07:59 | 30.63829 | 121.89480 | 21003 ft | 457 kts | 237° |
| 2026-05-05 07:59 | 30.62078 | 121.86368 | 20547 ft | 454 kts | 237° |
| 2026-05-05 07:59 | 30.60299 | 121.83212 | 20080 ft | 450 kts | 237° |
| 2026-05-05 08:00 | 30.58613 | 121.80224 | 19636 ft | 446 kts | 237° |
| 2026-05-05 08:00 | 30.56911 | 121.77211 | 19183 ft | 443 kts | 237° |
| 2026-05-05 08:00 | 30.55233 | 121.74242 | 18731 ft | 439 kts | 237° |
| 2026-05-05 08:00 | 30.53558 | 121.71282 | 18278 ft | 436 kts | 237° |
| 2026-05-05 08:01 | 30.51898 | 121.68350 | 17774 ft | 432 kts | 237° |
| 2026-05-05 08:01 | 30.50256 | 121.65453 | 17184 ft | 428 kts | 237° |
| 2026-05-05 08:01 | 30.48624 | 121.62575 | 16553 ft | 423 kts | 237° |
| 2026-05-05 08:01 | 30.47017 | 121.59744 | 15924 ft | 418 kts | 236° |
| 2026-05-05 08:02 | 30.45421 | 121.56934 | 15296 ft | 413 kts | 236° |
| 2026-05-05 08:02 | 30.43849 | 121.54170 | 14668 ft | 409 kts | 236° |
| 2026-05-05 08:02 | 30.42288 | 121.51425 | 14039 ft | 405 kts | 236° |
| 2026-05-05 08:02 | 30.40746 | 121.48719 | 13473 ft | 399 kts | 236° |
| 2026-05-05 08:03 | 30.39219 | 121.46039 | 12973 ft | 397 kts | 236° |
| 2026-05-05 08:03 | 30.37703 | 121.43380 | 12470 ft | 394 kts | 236° |
| 2026-05-05 08:03 | 30.36200 | 121.40745 | 12118 ft | 391 kts | 236° |
| 2026-05-05 08:03 | 30.34705 | 121.38116 | 11868 ft | 390 kts | 237° |
| 2026-05-05 08:04 | 30.33224 | 121.35494 | 11616 ft | 388 kts | 237° |
| 2026-05-05 08:04 | 30.31748 | 121.32880 | 11366 ft | 386 kts | 237° |
| 2026-05-05 08:04 | 30.30282 | 121.30286 | 11114 ft | 385 kts | 237° |
| 2026-05-05 08:04 | 30.28814 | 121.27693 | 10863 ft | 383 kts | 237° |
| 2026-05-05 08:05 | 30.27344 | 121.25100 | 10564 ft | 376 kts | 237° |
| 2026-05-05 08:05 | 30.25920 | 121.22604 | 10238 ft | 365 kts | 236° |
| 2026-05-05 08:05 | 30.24465 | 121.20256 | 10035 ft | 352 kts | 233° |
| 2026-05-05 08:05 | 30.23047 | 121.18038 | 10023 ft | 334 kts | 233° |
| 2026-05-05 08:06 | 30.21700 | 121.15942 | 10017 ft | 316 kts | 233° |
| 2026-05-05 08:06 | 30.20420 | 121.13953 | 10015 ft | 300 kts | 233° |
| 2026-05-05 08:06 | 30.19186 | 121.12037 | 10021 ft | 296 kts | 233° |
| 2026-05-05 08:06 | 30.17955 | 121.10124 | 9981 ft | 296 kts | 233° |
| 2026-05-05 08:07 | 30.16730 | 121.08221 | 9852 ft | 295 kts | 233° |
| 2026-05-05 08:07 | 30.15489 | 121.06293 | 9725 ft | 294 kts | 233° |
| 2026-05-05 08:07 | 30.14276 | 121.04410 | 9599 ft | 294 kts | 233° |
| 2026-05-05 08:07 | 30.13057 | 121.02518 | 9473 ft | 293 kts | 233° |
| 2026-05-05 08:08 | 30.11833 | 121.00619 | 9345 ft | 292 kts | 233° |
| 2026-05-05 08:08 | 30.10618 | 120.98735 | 9219 ft | 292 kts | 233° |
| 2026-05-05 08:08 | 30.09386 | 120.96824 | 9089 ft | 291 kts | 233° |
| 2026-05-05 08:08 | 30.08181 | 120.94952 | 8962 ft | 290 kts | 233° |
| 2026-05-05 08:09 | 30.06976 | 120.93073 | 8836 ft | 290 kts | 233° |
| 2026-05-05 08:09 | 30.05797 | 120.91232 | 8711 ft | 289 kts | 233° |
| 2026-05-05 08:09 | 30.04599 | 120.89362 | 8584 ft | 289 kts | 233° |
| 2026-05-05 08:09 | 30.03568 | 120.87386 | 8450 ft | 288 kts | 248° |
| 2026-05-05 08:10 | 30.03124 | 120.85139 | 8322 ft | 288 kts | 266° |
| 2026-05-05 08:10 | 30.03327 | 120.82845 | 8196 ft | 288 kts | 285° |
| 2026-05-05 08:10 | 30.04021 | 120.80674 | 8076 ft | 288 kts | 292° |
| 2026-05-05 08:10 | 30.04803 | 120.78549 | 7951 ft | 287 kts | 292° |
| 2026-05-05 08:11 | 30.05588 | 120.76436 | 7825 ft | 286 kts | 292° |
| 2026-05-05 08:11 | 30.06365 | 120.74312 | 7700 ft | 286 kts | 292° |
| 2026-05-05 08:11 | 30.07128 | 120.72200 | 7573 ft | 285 kts | 292° |
| 2026-05-05 08:11 | 30.07884 | 120.70083 | 7445 ft | 284 kts | 292° |
| 2026-05-05 08:12 | 30.08639 | 120.67957 | 7320 ft | 284 kts | 292° |
| 2026-05-05 08:12 | 30.09389 | 120.65839 | 7192 ft | 283 kts | 291° |
| 2026-05-05 08:12 | 30.10132 | 120.63735 | 7066 ft | 283 kts | 291° |
| 2026-05-05 08:12 | 30.10875 | 120.61629 | 6937 ft | 282 kts | 291° |
| 2026-05-05 08:13 | 30.11613 | 120.59535 | 6812 ft | 281 kts | 291° |
| 2026-05-05 08:13 | 30.12351 | 120.57438 | 6685 ft | 281 kts | 291° |
| 2026-05-05 08:13 | 30.13086 | 120.55348 | 6559 ft | 280 kts | 291° |
| 2026-05-05 08:13 | 30.13819 | 120.53265 | 6430 ft | 280 kts | 291° |
| 2026-05-05 08:14 | 30.14551 | 120.51182 | 6307 ft | 279 kts | 291° |
| 2026-05-05 08:14 | 30.15314 | 120.49011 | 6265 ft | 276 kts | 291° |
| 2026-05-05 08:14 | 30.15892 | 120.46912 | 6148 ft | 264 kts | 274° |
| 2026-05-05 08:14 | 30.15608 | 120.44885 | 6015 ft | 252 kts | 246° |
| 2026-05-05 08:15 | 30.14825 | 120.43081 | 5912 ft | 266 kts | 242° |
| 2026-05-05 08:15 | 30.13954 | 120.41216 | 5804 ft | 260 kts | 241° |
| 2026-05-05 08:15 | 30.13114 | 120.39406 | 5641 ft | 251 kts | 242° |
| 2026-05-05 08:15 | 30.12293 | 120.37612 | 5504 ft | 242 kts | 242° |
| 2026-05-05 08:16 | 30.11513 | 120.35887 | 5373 ft | 234 kts | 242° |
| 2026-05-05 08:16 | 30.10775 | 120.34246 | 5238 ft | 225 kts | 242° |
| 2026-05-05 08:16 | 30.10068 | 120.32664 | 5103 ft | 218 kts | 242° |
| 2026-05-05 08:16 | 30.09384 | 120.31135 | 4958 ft | 210 kts | 242° |
| 2026-05-05 08:17 | 30.08724 | 120.29656 | 4778 ft | 205 kts | 242° |
| 2026-05-05 08:17 | 30.08056 | 120.28159 | 4321 ft | 215 kts | 242° |
| 2026-05-05 08:17 | 30.07359 | 120.26597 | 3886 ft | 221 kts | 242° |
| 2026-05-05 08:17 | 30.06751 | 120.24947 | 3499 ft | 225 kts | 261° |
| 2026-05-05 08:18 | 30.06912 | 120.23197 | 3193 ft | 225 kts | 295° |
| 2026-05-05 08:18 | 30.07903 | 120.21847 | 3020 ft | 218 kts | 330° |
| 2026-05-05 08:18 | 30.09323 | 120.21444 | 3006 ft | 204 kts | 8° |
| 2026-05-05 08:18 | 30.10237 | 120.21777 | 3036 ft | 217 kts | 32° |
| 2026-05-05 08:19 | 30.11878 | 120.23271 | 3057 ft | 226 kts | 35° |
| 2026-05-05 08:19 | 30.12732 | 120.23950 | 3002 ft | 226 kts | 33° |
| 2026-05-05 08:19 | 30.14051 | 120.24936 | 2804 ft | 225 kts | 32° |
| 2026-05-05 08:19 | 30.15791 | 120.26231 | 2533 ft | 224 kts | 36° |
| 2026-05-05 08:20 | 30.16621 | 120.26974 | 2395 ft | 224 kts | 41° |
| 2026-05-05 08:20 | 30.17756 | 120.28223 | 2196 ft | 223 kts | 47° |
| 2026-05-05 08:20 | 30.18729 | 120.29605 | 2036 ft | 221 kts | 56° |
| 2026-05-05 08:20 | 30.19777 | 120.31636 | 1780 ft | 221 kts | 62° |
| 2026-05-05 08:21 | 30.20466 | 120.33198 | 1522 ft | 213 kts | 64° |
| 2026-05-05 08:21 | 30.20903 | 120.34217 | 1288 ft | 206 kts | 64° |
| 2026-05-05 08:21 | 30.21536 | 120.35667 | 1006 ft | 193 kts | 63° |
| 2026-05-05 08:21 | 30.22136 | 120.37021 | 777 ft | 186 kts | 63° |
| 2026-05-05 08:22 | 30.22881 | 120.38706 | 477 ft | 169 kts | 63° |
| 2026-05-05 08:22 | 30.23235 | 120.39509 | 285 ft | 162 kts | 63° |
| 2026-05-05 08:22 | 30.23740 | 120.40634 | 100 ft | 159 kts | 62° |
| 2026-05-05 08:22 | 30.24222 | 120.41725 | 40 ft | 130 kts | 64° |
| 2026-05-05 08:23 | 30.24543 | 120.42463 | 38 ft | 77 kts | 63° |
| 2026-05-05 08:23 | 30.24711 | 120.42871 | 39 ft | 43 kts | 76° |
| 2026-05-05 08:23 | 30.24722 | 120.43087 | 41 ft | 23 kts | 91° |
| 2026-05-05 08:23 | 30.24672 | 120.43138 | 41 ft | 11 kts | 227° |
| 2026-05-05 08:24 | 30.24618 | 120.43062 | 40 ft | 14 kts | 236° |
| 2026-05-05 08:24 | 30.24563 | 120.42954 | 40 ft | 17 kts | 245° |
| 2026-05-05 08:24 | 30.24510 | 120.42821 | 40 ft | 20 kts | 244° |
| 2026-05-05 08:24 | 30.24394 | 120.42776 | 40 ft | 21 kts | 157° |
| 2026-05-05 08:25 | 30.24282 | 120.42741 | 40 ft | 19 kts | 241° |
| 2026-05-05 08:25 | 30.24204 | 120.42687 | 40 ft | 10 kts | 177° |
| 2026-05-05 08:25 | 30.24169 | 120.42690 | 40 ft | 4 kts | 170° |
| 2026-05-05 08:25 | 30.24157 | 120.42694 | 40 ft | 0 kts | 164° |